createdAt,value
2022-12-12T00:13:45.518Z,1.74
2022-12-12T00:18:48.538Z,1.71
2022-12-12T00:23:51.471Z,1.73
2022-12-12T00:34:19.217Z,1.79
2022-12-12T00:39:22.079Z,1.71
2022-12-12T00:44:25.750Z,1.67
2022-12-12T00:49:34.493Z,1.67
2022-12-12T00:54:37.221Z,1.67
2022-12-12T00:59:41.998Z,1.65
2022-12-12T01:04:50.167Z,1.65
2022-12-12T01:15:20.160Z,1.74
2022-12-12T01:20:32.931Z,1.70
2022-12-12T01:36:15.541Z,1.72
2022-12-12T01:46:52.894Z,1.65
2022-12-12T01:57:27.878Z,1.59
2022-12-12T02:07:53.060Z,1.52
2022-12-12T02:13:02.534Z,1.39
2022-12-12T02:18:13.114Z,1.33
2022-12-12T02:24:04.257Z,1.25
2022-12-12T02:29:48.021Z,1.20
2022-12-12T02:35:12.914Z,1.15
2022-12-12T02:45:43.206Z,1.10
2022-12-12T02:50:50.210Z,0.95
2022-12-12T02:56:03.799Z,0.88
2022-12-12T03:01:29.913Z,0.81
2022-12-12T03:06:47.415Z,0.73
2022-12-12T03:12:03.534Z,0.69
2022-12-12T03:22:32.320Z,0.67
2022-12-12T03:27:40.415Z,0.58
2022-12-12T03:32:49.801Z,0.55
2022-12-12T03:43:16.134Z,0.59
2022-12-12T03:48:34.066Z,0.50
2022-12-12T03:59:05.123Z,0.53
2022-12-12T04:09:36.690Z,0.48
2022-12-12T04:14:54.302Z,0.36
2022-12-12T04:20:02.373Z,0.31
2022-12-12T04:25:18.329Z,0.29
2022-12-12T04:30:21.370Z,0.24
2022-12-12T04:35:29.455Z,0.19
2022-12-12T04:40:43.933Z,0.15
2022-12-12T04:45:52.167Z,0.08
2022-12-12T04:50:56.170Z,0.05
2022-12-12T04:56:09.410Z,-0.02
2022-12-12T05:11:54.894Z,-0.05
2022-12-12T05:17:02.286Z,-0.13
2022-12-12T05:27:25.298Z,-0.07
2022-12-12T05:32:28.382Z,-0.16
2022-12-12T05:37:31.082Z,-0.19
2022-12-12T05:42:39.530Z,-0.24
2022-12-12T05:53:07.283Z,-0.26
2022-12-12T06:03:29.620Z,-0.37
2022-12-12T06:08:32.498Z,-0.48
2022-12-12T06:18:58.623Z,-0.55
2022-12-12T06:34:43.900Z,-0.66
2022-12-12T06:39:48.315Z,-0.76
2022-12-12T06:44:51.269Z,-0.81
2022-12-12T06:50:00.182Z,-0.80
2022-12-12T06:55:02.929Z,-0.82
2022-12-12T07:00:06.620Z,-0.86
2022-12-12T07:05:15.843Z,-0.89
2022-12-12T07:10:21.391Z,-0.94
2022-12-12T07:15:25.104Z,-0.99
2022-12-12T07:20:34.085Z,-1.02
2022-12-12T07:25:38.542Z,-1.03
2022-12-12T07:30:49.940Z,-1.07
2022-12-12T07:36:01.941Z,-1.09
2022-12-12T07:46:26.842Z,-1.05
2022-12-12T07:51:31.071Z,-1.12
2022-12-12T07:56:33.828Z,-1.14
2022-12-12T08:01:41.980Z,-1.16
2022-12-12T08:06:44.900Z,-1.15
2022-12-12T08:11:47.647Z,-1.13
2022-12-12T08:16:57.241Z,-1.11
2022-12-12T08:22:00.230Z,-1.10
2022-12-12T08:27:03.280Z,-1.09
2022-12-12T08:32:11.943Z,-1.08
2022-12-12T08:37:14.850Z,-1.08
2022-12-12T08:47:40.273Z,-0.98
2022-12-12T08:52:43.111Z,-1.01
2022-12-12T09:03:06.891Z,-0.86
2022-12-12T09:08:17.467Z,-0.88
2022-12-12T09:13:20.365Z,-0.86
2022-12-12T09:18:30.349Z,-0.83
2022-12-12T09:23:34.042Z,-0.77
2022-12-12T09:28:37.631Z,-0.71
2022-12-12T09:44:25.504Z,-0.35
2022-12-12T09:49:41.566Z,-0.25
2022-12-12T09:54:46.481Z,0.17
2022-12-12T10:05:34.730Z,1.21
2022-12-12T10:10:41.885Z,1.75
2022-12-12T10:15:48.429Z,2.29
2022-12-12T10:21:01.549Z,2.40
2022-12-12T10:26:10.618Z,2.41
2022-12-12T10:31:28.930Z,2.02
2022-12-12T10:36:56.562Z,1.68
2022-12-12T10:42:04.683Z,2.56
2022-12-12T10:47:09.238Z,2.69
2022-12-12T10:52:20.866Z,2.36
2022-12-12T10:57:25.239Z,1.95
2022-12-12T11:02:38.556Z,1.63
2022-12-12T11:07:51.025Z,1.35
2022-12-12T11:12:59.036Z,1.13
2022-12-12T11:23:28.984Z,0.92
2022-12-12T11:34:09.562Z,0.75
2022-12-12T11:39:17.700Z,0.63
2022-12-12T11:44:25.233Z,0.58
2022-12-12T11:49:33.242Z,0.55
2022-12-12T12:00:07.868Z,0.58
2022-12-12T12:05:24.791Z,0.54
2022-12-12T12:10:45.037Z,0.56
2022-12-12T12:21:38.458Z,0.65
2022-12-12T12:26:48.992Z,0.61
2022-12-12T12:32:03.465Z,0.61
2022-12-12T12:37:26.312Z,0.61
2022-12-12T12:42:49.477Z,0.58
2022-12-12T12:53:30.992Z,0.65
2022-12-12T13:04:13.228Z,0.63
2022-12-12T13:14:54.454Z,0.64
2022-12-12T13:20:01.217Z,0.59
2022-12-12T13:25:12.167Z,0.59
2022-12-12T13:30:25.372Z,0.58
2022-12-12T13:35:33.084Z,0.60
2022-12-12T13:40:45.518Z,0.60
2022-12-12T13:45:53.687Z,0.60
2022-12-12T13:51:31.098Z,0.57
2022-12-12T13:56:35.563Z,0.55
2022-12-12T14:01:44.760Z,0.49
2022-12-12T14:06:59.667Z,0.42
2022-12-12T14:12:05.363Z,0.38
2022-12-12T14:23:26.651Z,0.37
2022-12-12T14:28:31.174Z,0.25
2022-12-12T14:39:14.170Z,0.13
2022-12-12T14:44:37.298Z,0.03
2022-12-12T14:49:41.739Z,-0.01
2022-12-12T15:00:18.004Z,-0.03
2022-12-12T15:10:43.791Z,-0.10
2022-12-12T15:26:28.152Z,-0.18
2022-12-12T15:36:49.949Z,-0.27
2022-12-12T15:41:52.859Z,-0.37
2022-12-12T15:46:56.120Z,-0.39
2022-12-12T15:52:10.603Z,-0.44
2022-12-12T16:02:40.541Z,-0.46
2022-12-12T16:07:43.363Z,-0.56
2022-12-12T16:28:58.556Z,-0.63
2022-12-12T16:34:04.187Z,-0.66
2022-12-12T16:39:12.958Z,-0.68
2022-12-12T16:44:17.299Z,-0.68
2022-12-12T16:59:57.758Z,-0.64
2022-12-12T17:05:00.526Z,-0.73
2022-12-12T17:10:03.253Z,-0.72
2022-12-12T17:15:15.979Z,-0.72
2022-12-12T17:20:19.268Z,-0.72
2022-12-12T17:25:23.027Z,-0.72
2022-12-12T17:30:32.144Z,-0.70
2022-12-12T17:35:35.674Z,-0.70
2022-12-12T17:40:43.623Z,-0.69
2022-12-12T17:45:58.865Z,-0.69
2022-12-12T17:51:05.941Z,-0.67
2022-12-12T17:56:12.143Z,-0.65
2022-12-12T18:06:38.724Z,-0.56
2022-12-12T18:22:15.878Z,-0.53
2022-12-12T18:32:39.608Z,-0.50
2022-12-12T18:37:42.677Z,-0.56
2022-12-12T18:42:46.349Z,-0.56
2022-12-12T18:47:55.266Z,-0.56
2022-12-12T18:52:58.041Z,-0.54
2022-12-12T19:03:21.465Z,-0.44
2022-12-12T19:08:25.089Z,-0.50
2022-12-12T19:13:28.742Z,-0.50
2022-12-12T19:34:35.907Z,-0.42
2022-12-12T19:39:39.679Z,-0.52
2022-12-12T19:44:43.784Z,-0.53
2022-12-12T19:49:51.928Z,-0.54
2022-12-12T19:54:55.952Z,-0.53
2022-12-12T20:10:38.434Z,-0.45
2022-12-12T20:21:05.706Z,-0.46
2022-12-12T20:26:13.112Z,-0.52
2022-12-12T20:31:18.688Z,-0.53
2022-12-12T20:36:31.178Z,-0.55
2022-12-12T20:41:36.720Z,-0.54
2022-12-12T20:46:41.336Z,-0.56
2022-12-12T20:51:58.248Z,-0.56
2022-12-12T21:07:47.715Z,-0.49
2022-12-12T21:12:50.555Z,-0.56
2022-12-12T21:17:54.543Z,-0.58
2022-12-12T21:23:03.222Z,-0.57
2022-12-12T21:28:07.439Z,-0.57
2022-12-12T21:33:10.738Z,-0.56
2022-12-12T21:38:21.572Z,-0.56
2022-12-12T21:43:24.566Z,-0.55
2022-12-12T21:48:28.540Z,-0.57
2022-12-12T21:53:37.122Z,-0.58
2022-12-12T21:58:42.545Z,-0.56
2022-12-12T22:03:46.436Z,-0.57
2022-12-12T22:08:57.177Z,-0.57
2022-12-12T22:14:00.862Z,-0.57
2022-12-12T22:29:43.216Z,-0.66
2022-12-12T22:34:47.243Z,-0.77
2022-12-12T22:39:50.002Z,-0.84
2022-12-12T22:44:58.143Z,-0.92
2022-12-12T22:50:02.681Z,-0.98
2022-12-12T22:55:06.859Z,-1.06
2022-12-12T23:00:19.234Z,-1.13
2022-12-12T23:05:24.480Z,-1.20
2022-12-12T23:10:27.472Z,-1.25
2022-12-12T23:20:59.074Z,-1.17
2022-12-12T23:26:03.811Z,-1.18
2022-12-12T23:31:09.767Z,-1.11
2022-12-12T23:36:18.957Z,-1.04
2022-12-12T23:46:43.841Z,-0.84
2022-12-12T23:57:13.012Z,-0.76
